Time;durP1;ratioP1;P1;durP2;ratioP2;P2;SDS_P1;SDS_P2;PMS_P1;PMS_P2;Temp;Humidity;BMP_temperature;BMP_pressure;BME280_temperature;BME280_humidity;BME280_pressure;Samples;Min_cycle;Max_cycle;Signal;HPM_P1;HPM_P2
2022/02/11 00:00:17;;;;;;;8.75;1.20;;;;;;;0.40;55.47;101724.88;5022487;28;20484;-79
2022/02/11 00:07:56;;;;;;;7.88;1.02;;;;;;;0.22;55.55;101702.28;5037743;28;20068;-79
2022/02/11 00:10:21;;;;;;;12.38;1.45;;;;;;;0.64;54.50;101696.09;5038693;28;20039;-79
2022/02/11 00:12:47;;;;;;;7.38;1.67;;;;;;;0.55;54.54;101689.09;5026758;28;20442;-81
2022/02/11 00:17:38;;;;;;;4.85;0.60;;;;;;;0.19;55.82;101685.13;5021097;28;20445;-80
2022/02/11 00:20:04;;;;;;;6.93;1.23;;;;;;;0.36;55.20;101685.38;5005428;28;20029;-81
2022/02/11 00:22:30;;;;;;;10.75;1.30;;;;;;;0.44;55.09;101688.06;5010669;28;20033;-80
2022/02/11 00:24:55;;;;;;;8.52;1.50;;;;;;;0.20;55.66;101684.25;5058579;28;20059;-80
2022/02/11 00:35:38;;;;;;;6.70;0.85;;;;;;;0.59;54.12;101660.00;5053334;28;20419;-81
2022/02/11 00:38:10;;;;;;;2.38;0.65;;;;;;;0.26;54.97;101661.22;4999251;28;20077;-80
2022/02/11 01:04:44;;;;;;;13.20;1.20;;;;;;;0.13;54.86;101649.03;5072804;28;20126;-80
2022/02/11 01:07:09;;;;;;;5.60;0.45;;;;;;;0.17;54.78;101635.38;5059224;28;20041;-79
2022/02/11 01:09:36;;;;;;;12.02;0.68;;;;;;;-0.08;54.91;101634.13;5041315;28;20037;-77
2022/02/11 01:12:04;;;;;;;7.00;0.47;;;;;;;-0.23;55.55;101627.03;5054954;28;20045;-77
2022/02/11 01:14:34;;;;;;;2.47;0.40;;;;;;;-0.20;55.25;101634.75;5056924;28;20033;-78
2022/02/11 01:17:10;;;;;;;10.70;0.55;;;;;;;-0.13;55.07;101630.59;5029913;28;20526;-78
2022/02/11 01:19:47;;;;;;;7.13;0.68;;;;;;;-0.56;56.02;101630.72;5056581;28;20426;-80
2022/02/11 01:22:29;;;;;;;4.57;0.52;;;;;;;-0.16;55.23;101630.56;5072527;28;20164;-80
2022/02/11 01:28:05;;;;;;;6.30;0.88;;;;;;;-0.01;54.54;101610.25;5071522;28;20406;-79
2022/02/11 01:30:39;;;;;;;3.58;0.52;;;;;;;0.31;53.66;101611.56;5036221;28;20040;-79
2022/02/11 01:49:41;;;;;;;9.25;0.70;;;;;;;0.00;55.25;101570.84;5071858;28;20045;-79
2022/02/11 01:52:40;;;;;;;4.97;0.40;;;;;;;-0.10;55.22;101562.97;5039935;28;20507;-80
2022/02/11 01:55:27;;;;;;;10.55;1.08;;;;;;;0.19;54.45;101554.00;5040032;28;20033;-78
2022/02/11 02:12:06;;;;;;;8.15;0.38;;;;;;;-0.16;55.77;101525.22;5017973;28;20068;-81
2022/02/11 02:25:14;;;;;;;7.70;0.85;;;;;;;0.26;54.95;101499.22;5056476;28;20557;-81
2022/02/11 02:57:03;;;;;;;3.85;0.77;;;;;;;0.40;55.07;101442.81;5070487;28;20059;-80
2022/02/11 04:59:57;;;;;;;9.40;1.10;;;;;;;1.27;60.59;101310.59;5051577;28;20468;-79
2022/02/11 05:02:30;;;;;;;6.82;1.65;;;;;;;1.03;61.81;101299.28;5001252;28;20077;-79
2022/02/11 05:04:56;;;;;;;12.07;1.85;;;;;;;1.53;60.64;101297.88;5051750;28;20250;-80
2022/02/11 05:07:21;;;;;;;9.27;0.98;;;;;;;1.44;61.11;101298.72;5001215;28;20147;-80
2022/02/11 05:09:47;;;;;;;5.38;0.73;;;;;;;1.77;60.63;101303.97;5017083;28;20571;-80
2022/02/11 05:12:12;;;;;;;12.93;1.17;;;;;;;1.44;61.43;101293.56;5018259;28;20067;-80
2022/02/11 05:14:38;;;;;;;6.78;0.80;;;;;;;1.66;60.69;101288.47;5019004;28;20582;-80
2022/02/11 05:17:04;;;;;;;4.10;1.00;;;;;;;1.55;62.02;101290.16;5001626;28;20556;-81
2022/02/11 05:19:29;;;;;;;8.10;0.52;;;;;;;1.83;60.99;101294.56;5052294;28;20411;-79
2022/02/11 05:21:55;;;;;;;7.90;0.45;;;;;;;1.94;60.80;101292.88;5032762;28;20425;-82
2022/02/11 05:24:20;;;;;;;14.68;0.90;;;;;;;2.21;60.04;101288.63;5035038;28;20072;-79
2022/02/11 05:26:46;;;;;;;13.68;1.00;;;;;;;2.10;60.39;101287.75;5032689;28;20400;-80
2022/02/11 05:29:11;;;;;;;4.30;0.28;;;;;;;1.77;61.56;101284.22;5035423;28;20036;-81
2022/02/11 05:31:37;;;;;;;8.05;0.88;;;;;;;1.98;61.05;101287.72;5017158;28;20037;-79
2022/02/11 05:34:03;;;;;;;10.57;0.85;;;;;;;2.17;60.42;101281.72;5018785;28;20559;-78
2022/02/11 05:36:28;;;;;;;15.70;1.48;;;;;;;2.05;60.79;101280.00;5002746;28;20037;-80
2022/02/11 05:38:54;;;;;;;8.45;1.10;;;;;;;1.84;61.72;101282.50;5018749;28;20083;-79
2022/02/11 05:41:20;;;;;;;5.90;0.68;;;;;;;1.57;62.37;101275.56;5019873;28;20048;-78
2022/02/11 05:43:46;;;;;;;6.50;0.47;;;;;;;1.78;62.39;101285.94;4995250;28;20049;-79
2022/02/11 05:46:12;;;;;;;10.18;0.52;;;;;;;2.03;61.24;101279.13;5039236;28;20037;-78
2022/02/11 05:48:39;;;;;;;13.18;0.50;;;;;;;2.25;60.42;101290.34;5021955;28;20472;-76
2022/02/11 05:51:09;;;;;;;4.57;0.98;;;;;;;2.13;61.42;101288.63;5023325;28;20068;-80
2022/02/11 05:53:35;;;;;;;8.32;0.70;;;;;;;2.39;60.38;101295.50;5027446;28;20081;-80
2022/02/11 05:56:03;;;;;;;5.88;0.35;;;;;;;2.51;59.61;101289.50;5037309;28;20710;-80
2022/02/11 05:58:29;;;;;;;9.30;0.70;;;;;;;2.43;60.06;101298.97;5038954;28;20073;-80
2022/02/11 06:00:54;;;;;;;11.43;0.73;;;;;;;2.51;59.86;101297.22;5023207;28;20124;-78
2022/02/11 06:03:22;;;;;;;8.30;0.35;;;;;;;2.62;59.40;101299.81;5008598;28;20060;-80
2022/02/11 06:05:48;;;;;;;7.78;0.40;;;;;;;2.10;60.99;101305.78;5021976;28;20025;-80
2022/02/11 06:08:13;;;;;;;5.25;0.47;;;;;;;2.28;60.97;101305.81;5002795;28;20461;-77
2022/02/11 06:10:39;;;;;;;11.00;1.27;;;;;;;2.38;60.70;101316.16;5033390;28;20127;-80
2022/02/11 06:13:04;;;;;;;5.70;0.40;;;;;;;2.59;60.40;101323.91;5050288;28;20060;-78
2022/02/11 06:15:30;;;;;;;4.63;0.63;;;;;;;2.59;60.67;101326.50;5023600;28;20446;-76
2022/02/11 06:17:56;;;;;;;11.98;0.90;;;;;;;2.72;60.36;101335.09;5006248;28;20284;-76
2022/02/11 06:20:27;;;;;;;5.95;0.50;;;;;;;2.36;60.82;101341.97;5022400;28;20029;-81
2022/02/11 06:22:54;;;;;;;13.77;0.70;;;;;;;1.83;61.78;101340.94;5017518;28;20541;-79
2022/02/11 06:25:20;;;;;;;2.17;0.20;;;;;;;2.30;60.33;101350.53;4995105;28;20497;-81
2022/02/11 06:27:45;;;;;;;9.00;0.50;;;;;;;2.21;60.66;101359.97;5003370;28;20038;-80
2022/02/11 06:30:12;;;;;;;6.07;0.63;;;;;;;2.40;60.01;101371.19;5025675;28;20038;-78
2022/02/11 06:32:37;;;;;;;5.30;0.65;;;;;;;2.00;61.01;101376.22;5017037;28;20055;-80
2022/02/11 06:35:03;;;;;;;9.88;0.40;;;;;;;2.54;59.62;101385.00;5050227;28;20036;-80
2022/02/11 06:37:29;;;;;;;4.97;0.35;;;;;;;2.63;59.19;101391.91;5057638;28;20055;-80
2022/02/11 06:39:54;;;;;;;8.65;0.65;;;;;;;2.37;60.38;101397.00;5057771;28;20035;-80
2022/02/11 06:42:20;;;;;;;8.63;0.22;;;;;;;1.67;62.56;101413.91;5039061;28;20108;-83
2022/02/11 06:44:46;;;;;;;12.68;1.25;;;;;;;1.71;62.34;101415.66;5050432;28;20041;-80
2022/02/11 06:47:11;;;;;;;4.28;0.35;;;;;;;2.03;61.12;101430.41;5057380;28;20045;-81
2022/02/11 06:49:37;;;;;;;9.70;0.57;;;;;;;2.40;59.83;101433.09;5057150;28;20441;-80
2022/02/11 06:52:03;;;;;;;12.15;0.20;;;;;;;2.19;59.85;101450.25;5024612;28;20037;-80
2022/02/11 06:54:28;;;;;;;2.95;0.50;;;;;;;2.10;60.21;101455.34;5055916;28;20530;-80
2022/02/11 06:56:54;;;;;;;9.75;0.50;;;;;;;2.37;59.55;101464.06;5053320;28;20037;-80
2022/02/11 06:59:19;;;;;;;3.45;0.95;;;;;;;2.11;59.08;101475.16;5040011;28;20032;-80
2022/02/11 07:01:45;;;;;;;5.18;0.20;;;;;;;1.78;59.71;101479.25;5051388;28;20037;-80
2022/02/11 07:04:11;;;;;;;5.35;0.20;;;;;;;2.01;59.25;101476.81;5045837;28;20335;-80
2022/02/11 07:06:36;;;;;;;6.50;0.20;;;;;;;2.37;58.24;101503.63;5056219;28;20068;-80
2022/02/11 07:09:02;;;;;;;3.88;0.40;;;;;;;2.43;58.18;101501.06;5057640;28;20124;-79
2022/02/11 07:11:28;;;;;;;8.48;0.60;;;;;;;2.30;58.75;101510.47;5058691;28;20092;-80
2022/02/11 07:13:53;;;;;;;13.55;0.45;;;;;;;2.00;59.65;101520.63;5027467;28;20483;-82
2022/02/11 07:16:19;;;;;;;3.75;0.40;;;;;;;2.12;59.51;101531.88;5046576;28;20551;-82
2022/02/11 07:18:44;;;;;;;12.85;1.38;;;;;;;1.93;59.57;101545.53;5074286;28;20090;-80
2022/02/11 07:21:10;;;;;;;3.92;0.45;;;;;;;2.59;57.48;101547.59;5043520;28;20028;-81
2022/02/11 07:23:36;;;;;;;5.57;0.65;;;;;;;2.18;58.25;101556.84;5038807;28;20083;-80
2022/02/11 07:26:01;;;;;;;4.25;0.25;;;;;;;2.16;58.20;101574.03;5074485;28;20167;-82
2022/02/11 07:28:27;;;;;;;12.85;0.45;;;;;;;2.18;57.76;101585.22;5057199;28;20064;-80
2022/02/11 07:30:53;;;;;;;4.07;0.32;;;;;;;2.04;58.14;101604.88;5060351;28;20028;-76
2022/02/11 07:33:18;;;;;;;5.28;0.90;;;;;;;2.02;58.41;101622.06;5062236;28;20392;-81
2022/02/11 07:35:44;;;;;;;10.13;1.25;;;;;;;2.02;58.71;101611.75;5057873;28;20035;-81
2022/02/11 07:38:11;;;;;;;10.38;0.73;;;;;;;2.01;59.18;101634.09;5065409;28;20045;-80
2022/02/11 07:40:39;;;;;;;1.50;0.40;;;;;;;2.14;59.00;101638.50;5017154;28;20076;-80
2022/02/11 07:43:05;;;;;;;5.97;0.20;;;;;;;2.19;58.82;101653.13;5046716;28;20043;-80
2022/02/11 07:45:31;;;;;;;2.20;0.40;;;;;;;2.26;59.08;101667.81;5018310;28;20032;-74
2022/02/11 07:47:57;;;;;;;3.58;0.30;;;;;;;2.23;59.10;101673.81;5010714;28;20195;-84
2022/02/11 07:50:22;;;;;;;2.80;0.85;;;;;;;2.47;58.23;101685.16;5047614;28;20041;-81
2022/02/11 07:52:48;;;;;;;0.85;0.10;;;;;;;2.09;59.58;101690.91;5028553;28;20084;-78
2022/02/11 07:55:14;;;;;;;7.63;0.63;;;;;;;2.26;59.31;101704.78;5055162;28;20032;-81
2022/02/11 07:57:39;;;;;;;9.57;0.65;;;;;;;2.39;58.67;101715.19;5062061;28;20053;-79
2022/02/11 08:00:06;;;;;;;6.32;0.35;;;;;;;2.49;58.44;101723.03;5007113;28;20551;-78
2022/02/11 08:02:38;;;;;;;3.30;0.40;;;;;;;2.82;57.70;101725.81;5053718;28;20128;-81
2022/02/11 08:05:05;;;;;;;6.60;0.35;;;;;;;2.83;57.75;101743.91;5022631;28;20096;-83
2022/02/11 08:07:30;;;;;;;8.02;0.43;;;;;;;3.09;56.79;101756.97;5031871;28;20060;-81
2022/02/11 08:09:56;;;;;;;8.30;0.70;;;;;;;3.14;56.49;101768.19;5056761;28;20555;-82
2022/02/11 08:12:22;;;;;;;6.13;0.55;;;;;;;3.22;56.35;101777.69;5036093;28;20048;-83
2022/02/11 08:14:47;;;;;;;6.03;0.20;;;;;;;2.80;57.36;101789.47;5023889;28;20040;-79
2022/02/11 08:17:13;;;;;;;9.18;0.43;;;;;;;3.36;56.09;101791.59;5018539;28;20059;-83
2022/02/11 08:19:39;;;;;;;3.55;0.17;;;;;;;3.61;55.58;101796.88;5035736;28;20431;-75
2022/02/11 08:22:04;;;;;;;3.92;0.10;;;;;;;3.22;57.01;101808.69;5041120;28;20107;-81
2022/02/11 08:24:30;;;;;;;2.05;0.17;;;;;;;3.11;57.35;101822.44;5075710;28;20119;-81
2022/02/11 08:26:56;;;;;;;6.88;1.13;;;;;;;3.15;57.06;101831.03;5040652;28;20398;-81
2022/02/11 08:29:25;;;;;;;4.07;0.43;;;;;;;2.46;58.96;101844.28;5044730;28;20031;-80
2022/02/11 08:31:55;;;;;;;2.65;0.10;;;;;;;2.26;58.70;101854.38;5027751;28;21491;-81
2022/02/11 08:34:22;;;;;;;5.15;0.73;;;;;;;2.81;57.33;101863.53;5064147;28;20029;-81
2022/02/11 08:36:48;;;;;;;4.88;0.20;;;;;;;2.89;57.48;101873.06;5064799;28;20064;-82
2022/02/11 08:39:15;;;;;;;6.50;0.30;;;;;;;2.90;57.44;101884.25;5035631;28;20288;-80
2022/02/11 08:41:40;;;;;;;2.33;0.40;;;;;;;2.74;57.83;101899.59;5046807;28;20039;-80
2022/02/11 08:44:06;;;;;;;2.70;0.10;;;;;;;2.81;57.24;101917.75;5067586;28;20037;-81
2022/02/11 08:46:32;;;;;;;3.03;0.20;;;;;;;2.41;58.45;101917.34;5064618;28;20044;-82
2022/02/11 08:48:58;;;;;;;3.28;0.30;;;;;;;2.27;58.55;101922.34;5044873;28;20037;-80
2022/02/11 08:51:24;;;;;;;7.03;0.47;;;;;;;1.96;59.71;101936.59;5028946;28;20945;-81
2022/02/11 08:53:51;;;;;;;10.10;0.73;;;;;;;2.14;59.22;101944.56;5037949;28;20056;-79
2022/02/11 08:56:18;;;;;;;3.65;0.20;;;;;;;2.11;59.19;101947.09;5062954;28;20561;-79
2022/02/11 08:58:44;;;;;;;5.43;0.20;;;;;;;2.17;58.79;101967.78;5038646;28;20039;-80
2022/02/11 09:01:10;;;;;;;0.32;0.10;;;;;;;1.64;60.45;101976.53;5049313;28;20040;-81
2022/02/11 09:03:35;;;;;;;10.38;0.32;;;;;;;2.04;59.30;101989.09;5041645;28;20076;-78
2022/02/11 09:06:05;;;;;;;3.80;0.10;;;;;;;2.34;58.19;102011.88;5023891;28;20412;-79
2022/02/11 09:08:34;;;;;;;5.28;0.30;;;;;;;2.50;57.78;102015.50;5023340;28;20041;-76
2022/02/11 09:11:02;;;;;;;2.83;0.47;;;;;;;2.37;57.91;102021.34;5043137;28;20026;-78
2022/02/11 09:13:28;;;;;;;7.85;0.50;;;;;;;2.29;57.92;102036.75;5039082;28;20071;-80
2022/02/11 09:15:54;;;;;;;6.03;0.45;;;;;;;2.62;56.81;102049.19;5041766;28;20030;-80
2022/02/11 09:18:20;;;;;;;12.23;1.30;;;;;;;2.24;57.41;102044.44;5006098;28;20042;-79
2022/02/11 09:20:46;;;;;;;9.82;0.70;;;;;;;2.38;57.61;102064.34;5007639;28;20663;-79
2022/02/11 09:23:11;;;;;;;10.93;2.05;;;;;;;2.73;57.06;102083.78;5025282;28;20034;-80
2022/02/11 09:25:37;;;;;;;14.40;1.40;;;;;;;2.38;58.26;102105.66;5025180;28;20041;-81
2022/02/11 09:28:03;;;;;;;10.57;1.17;;;;;;;2.70;57.56;102111.25;5023103;28;20805;-78
2022/02/11 09:30:29;;;;;;;16.25;1.85;;;;;;;2.17;58.46;102111.38;5040555;28;20033;-81
2022/02/11 09:32:57;;;;;;;10.35;0.75;;;;;;;1.87;59.19;102144.44;5039131;28;20037;-81
2022/02/11 09:35:23;;;;;;;12.88;1.00;;;;;;;1.61;59.65;102154.31;5023812;28;20034;-79
2022/02/11 09:37:49;;;;;;;15.65;0.82;;;;;;;2.03;58.79;102173.06;5049992;28;20044;-79
2022/02/11 09:40:17;;;;;;;13.93;1.10;;;;;;;1.04;61.48;102180.66;5051047;28;20028;-77
2022/02/11 09:42:43;;;;;;;8.68;1.08;;;;;;;1.40;60.57;102193.44;5047201;28;20638;-80
2022/02/11 09:45:13;;;;;;;6.78;0.60;;;;;;;0.85;61.35;102223.16;5027797;28;20124;-82
2022/02/11 09:47:38;;;;;;;12.73;0.82;;;;;;;0.92;60.29;102213.88;5058896;28;20049;-78
2022/02/11 09:50:06;;;;;;;4.38;0.60;;;;;;;0.96;59.88;102226.84;5059882;28;20052;-82
2022/02/11 09:52:47;;;;;;;6.10;1.10;;;;;;;0.97;59.61;102249.19;5068845;28;20038;-82
2022/02/11 09:58:00;;;;;;;12.02;0.65;;;;;;;0.73;59.89;102275.22;5053683;28;20052;-81
2022/02/11 10:00:27;;;;;;;9.35;0.68;;;;;;;0.84;58.81;102283.22;5008602;28;20041;-80
2022/02/11 10:02:54;;;;;;;5.32;0.38;;;;;;;1.24;58.05;102296.97;5048227;28;20041;-79
2022/02/11 10:05:24;;;;;;;11.00;0.80;;;;;;;1.04;58.56;102307.69;5042658;28;20167;-81
2022/02/11 10:07:50;;;;;;;2.67;0.38;;;;;;;1.28;57.84;102317.69;5045991;28;20518;-81
2022/02/11 10:10:38;;;;;;;2.08;0.38;;;;;;;0.93;58.14;102319.47;5042375;28;20098;-80
2022/02/11 10:13:04;;;;;;;10.68;0.90;;;;;;;0.72;59.03;102334.38;5021856;28;20049;-82
2022/02/11 10:15:30;;;;;;;6.65;0.40;;;;;;;1.23;58.15;102349.31;5023891;28;20026;-80
2022/02/11 10:17:59;;;;;;;11.20;0.50;;;;;;;1.39;57.37;102369.41;5004814;28;20029;-82
2022/02/11 10:20:26;;;;;;;5.18;0.90;;;;;;;1.12;58.98;102382.53;4999914;28;20125;-80
2022/02/11 10:23:01;;;;;;;8.82;0.38;;;;;;;1.08;59.24;102399.66;5009956;28;20098;-82
2022/02/11 10:25:27;;;;;;;6.30;0.40;;;;;;;1.48;57.50;102405.75;5018499;28;20033;-82
2022/02/11 10:27:53;;;;;;;6.70;0.63;;;;;;;1.47;57.72;102416.88;5018412;28;20511;-80
2022/02/11 10:30:22;;;;;;;4.57;0.40;;;;;;;1.31;57.66;102425.94;5032108;28;20033;-79
2022/02/11 10:32:49;;;;;;;6.82;0.22;;;;;;;1.07;56.43;102435.66;5036887;28;20128;-81
2022/02/11 10:35:17;;;;;;;2.55;0.50;;;;;;;1.39;55.93;102454.44;5004944;28;20041;-80
2022/02/11 10:38:04;;;;;;;17.30;1.08;;;;;;;1.20;55.05;102465.16;5033133;28;20053;-81
2022/02/11 10:40:32;;;;;;;4.28;0.57;;;;;;;1.27;54.38;102465.34;5023446;28;20038;-78
2022/02/11 10:42:58;;;;;;;10.63;0.70;;;;;;;1.29;54.91;102480.84;4997760;28;20443;-81
2022/02/11 10:45:40;;;;;;;13.93;0.55;;;;;;;1.43;54.79;102487.22;5021787;28;20041;-81
2022/02/11 10:48:18;;;;;;;4.40;0.60;;;;;;;1.10;55.11;102482.06;5012819;28;20527;-79
2022/02/11 10:51:06;;;;;;;8.90;0.80;;;;;;;1.37;54.74;102507.63;4996490;28;20688;-80
2022/02/11 10:53:34;;;;;;;10.20;1.10;;;;;;;0.80;56.23;102482.16;5003328;28;20136;-82
2022/02/11 10:56:02;;;;;;;7.93;1.10;;;;;;;1.29;55.15;102519.47;4999307;28;20507;-82
2022/02/11 10:58:29;;;;;;;4.15;0.50;;;;;;;1.76;54.39;102524.94;4996554;28;20128;-81
2022/02/11 11:01:01;;;;;;;14.32;1.33;;;;;;;1.61;54.92;102533.16;5003749;28;20076;-81
2022/02/11 11:03:34;;;;;;;7.20;1.58;;;;;;;1.78;54.39;102536.16;5004047;28;20045;-81
2022/02/11 11:06:09;;;;;;;6.18;1.52;;;;;;;1.77;55.01;102539.56;5037866;28;20049;-80
2022/02/11 11:08:41;;;;;;;11.57;0.60;;;;;;;1.48;55.58;102544.91;5026964;28;20953;-80
2022/02/11 11:11:09;;;;;;;10.55;0.47;;;;;;;1.50;54.66;102550.94;5038595;28;20041;-81
2022/02/11 11:13:40;;;;;;;6.07;0.90;;;;;;;2.09;53.41;102542.88;5000709;28;20037;-81
2022/02/11 11:16:10;;;;;;;11.32;0.45;;;;;;;1.94;53.88;102553.72;5039005;28;20063;-80
2022/02/11 11:18:39;;;;;;;13.60;0.98;;;;;;;2.27;52.35;102549.28;5035461;28;20048;-77
2022/02/11 11:21:10;;;;;;;6.70;0.80;;;;;;;2.43;52.10;102559.09;5026551;28;20498;-80
2022/02/11 11:23:41;;;;;;;12.48;1.42;;;;;;;2.55;50.83;102568.78;5017495;28;20078;-80
2022/02/11 11:26:09;;;;;;;10.35;0.63;;;;;;;2.10;50.33;102572.13;5079890;28;20033;-81
2022/02/11 11:28:44;;;;;;;12.50;0.63;;;;;;;2.13;47.15;102579.91;5060253;28;20128;-80
2022/02/11 11:31:17;;;;;;;4.65;0.47;;;;;;;2.50;45.63;102584.19;5053576;28;20044;-81
2022/02/11 11:33:45;;;;;;;8.48;1.08;;;;;;;2.79;44.66;102596.81;5003894;28;20763;-81
2022/02/11 11:36:13;;;;;;;4.18;1.13;;;;;;;2.49;44.34;102597.06;5010488;28;20368;-80
2022/02/11 11:38:56;;;;;;;14.35;1.23;;;;;;;2.46;43.43;102607.31;5004630;28;20073;-82
2022/02/11 11:41:21;;;;;;;6.35;1.05;;;;;;;2.93;43.39;102610.88;5004617;28;20049;-81
2022/02/11 11:43:59;;;;;;;7.45;0.75;;;;;;;3.40;42.81;102615.22;5052107;28;20555;-79
2022/02/11 11:46:28;;;;;;;17.02;0.73;;;;;;;3.23;42.62;102632.13;5003688;28;20505;-79
2022/02/11 11:49:08;;;;;;;14.88;1.30;;;;;;;4.17;41.81;102630.28;5025158;28;20051;-81
2022/02/11 11:51:38;;;;;;;7.88;0.63;;;;;;;4.12;40.89;102631.03;5039507;28;20068;-79
2022/02/11 11:54:21;;;;;;;7.20;0.50;;;;;;;3.93;41.36;102642.84;5039747;28;20044;-80
2022/02/11 11:56:50;;;;;;;6.05;0.45;;;;;;;3.71;42.07;102639.03;5038722;28;20061;-80
2022/02/11 11:59:17;;;;;;;15.20;0.60;;;;;;;4.30;40.98;102644.28;5072679;28;20124;-81
2022/02/11 12:01:54;;;;;;;4.57;0.88;;;;;;;3.86;40.66;102649.63;5052465;28;20037;-80
2022/02/11 12:04:26;;;;;;;7.40;0.38;;;;;;;3.34;41.93;102656.50;5002935;28;20041;-79
2022/02/11 12:06:59;;;;;;;7.03;0.88;;;;;;;3.46;41.53;102659.28;4993838;28;20503;-81
2022/02/11 12:09:25;;;;;;;8.70;0.50;;;;;;;3.43;41.73;102664.41;5015200;28;20037;-81
2022/02/11 12:12:02;;;;;;;9.15;1.00;;;;;;;3.37;42.22;102672.91;5001252;28;20569;-80
2022/02/11 12:14:31;;;;;;;6.50;0.63;;;;;;;3.37;41.86;102678.06;5000561;28;20650;-79
2022/02/11 12:16:58;;;;;;;12.40;1.25;;;;;;;3.07;42.52;102680.91;5049599;28;20107;-80
2022/02/11 12:19:24;;;;;;;10.48;1.80;;;;;;;3.30;42.94;102696.03;5032542;28;20036;-77
2022/02/11 12:21:50;;;;;;;6.95;1.05;;;;;;;3.12;43.20;102694.78;5015496;28;20900;-78
2022/02/11 12:29:54;;;;;;;11.38;1.20;;;;;;;3.22;42.62;102707.88;5018638;28;20037;-80
2022/02/11 12:32:26;;;;;;;10.68;0.65;;;;;;;2.90;40.76;102700.34;4999552;28;20042;-81
2022/02/11 12:34:57;;;;;;;8.43;0.60;;;;;;;3.24;39.25;102712.25;5032060;28;20162;-79
2022/02/11 12:37:25;;;;;;;6.60;0.20;;;;;;;3.13;38.14;102713.75;5033129;28;20179;-78
2022/02/11 12:40:15;;;;;;;12.05;0.57;;;;;;;2.88;38.47;102714.94;5050836;28;20068;-81
2022/02/11 12:42:43;;;;;;;3.00;0.40;;;;;;;3.25;38.09;102723.44;5017742;28;20471;-81
2022/02/11 12:45:13;;;;;;;3.83;0.57;;;;;;;3.64;37.80;102725.09;5032083;28;20033;-78
2022/02/11 12:47:40;;;;;;;8.30;1.00;;;;;;;3.95;37.95;102734.28;5017621;28;20041;-79
2022/02/11 12:50:10;;;;;;;6.57;0.55;;;;;;;4.19;36.69;102726.94;5016280;28;20047;-80
2022/02/11 12:52:37;;;;;;;4.47;0.55;;;;;;;4.29;37.07;102740.91;5005508;28;20041;-79
2022/02/11 12:55:16;;;;;;;2.55;0.40;;;;;;;4.09;36.61;102742.28;5017119;28;20029;-79
2022/02/11 12:57:50;;;;;;;3.78;0.55;;;;;;;4.34;36.87;102747.03;5048381;28;20163;-79
2022/02/11 13:00:24;;;;;;;9.38;0.90;;;;;;;5.32;35.81;102749.28;5008792;28;20033;-78
2022/02/11 13:02:54;;;;;;;5.68;1.10;;;;;;;4.99;34.61;102751.47;5049040;28;20041;-77
2022/02/11 13:05:21;;;;;;;13.55;1.13;;;;;;;5.08;34.54;102749.84;5054534;28;20916;-79
2022/02/11 13:07:51;;;;;;;6.40;1.45;;;;;;;4.16;35.56;102754.47;5038414;28;20041;-77
2022/02/11 13:10:28;;;;;;;8.70;0.55;;;;;;;4.53;35.48;102760.28;5031732;28;20038;-78
2022/02/11 13:13:06;;;;;;;5.90;1.55;;;;;;;4.23;35.72;102769.28;5006060;28;20033;-81
2022/02/11 13:15:35;;;;;;;12.20;1.13;;;;;;;4.89;34.98;102767.72;5005209;28;20331;-79
2022/02/11 13:18:12;;;;;;;6.75;0.35;;;;;;;4.75;35.55;102775.28;5010344;28;20040;-77
2022/02/11 13:20:40;;;;;;;4.57;0.63;;;;;;;4.76;36.24;102782.19;5023136;28;20076;-78
2022/02/11 13:23:07;;;;;;;10.13;0.82;;;;;;;4.43;35.89;102788.59;5019702;28;20033;-76
2022/02/11 13:25:33;;;;;;;8.38;0.95;;;;;;;4.23;36.12;102800.34;5054329;28;20036;-78
2022/02/11 13:28:10;;;;;;;7.05;0.50;;;;;;;4.28;37.02;102800.44;5021924;28;20131;-78
2022/02/11 13:30:38;;;;;;;8.68;1.60;;;;;;;4.43;37.04;102790.31;5052120;28;20060;-79
2022/02/11 13:33:20;;;;;;;6.20;1.08;;;;;;;3.98;38.96;102802.50;5001340;28;20577;-77
2022/02/11 13:35:46;;;;;;;7.60;0.52;;;;;;;4.26;39.26;102812.47;5016061;28;20945;-78
2022/02/11 13:38:20;;;;;;;6.65;0.82;;;;;;;4.50;39.64;102819.75;5010865;28;20095;-79
2022/02/11 13:41:10;;;;;;;2.35;0.50;;;;;;;4.15;40.34;102830.41;5005631;28;20026;-78
2022/02/11 13:43:49;;;;;;;7.82;0.57;;;;;;;4.36;41.08;102835.97;5024186;28;20063;-78
2022/02/11 13:46:29;;;;;;;11.43;1.13;;;;;;;3.75;42.89;102834.81;5032705;28;20037;-79
2022/02/11 13:49:09;;;;;;;10.18;0.90;;;;;;;3.43;44.69;102842.78;4998679;28;20045;-79
2022/02/11 13:51:36;;;;;;;6.30;0.93;;;;;;;3.22;45.45;102868.09;5035166;28;20056;-79
2022/02/11 13:54:18;;;;;;;4.55;0.55;;;;;;;2.27;48.06;102885.59;4999506;28;20041;-75
2022/02/11 13:56:46;;;;;;;4.53;0.40;;;;;;;1.81;50.28;102883.44;5008302;28;20044;-79
2022/02/11 13:59:16;;;;;;;4.13;0.50;;;;;;;1.53;51.20;102895.53;5002929;28;20033;-79
2022/02/11 14:01:44;;;;;;;3.97;0.68;;;;;;;1.14;51.25;102893.41;5012978;28;20036;-80
2022/02/11 14:04:12;;;;;;;2.95;0.28;;;;;;;1.22;51.46;102901.41;5033517;28;20109;-78
2022/02/11 14:06:52;;;;;;;5.32;0.45;;;;;;;1.59;48.45;102881.94;5047679;28;20506;-79
2022/02/11 14:09:40;;;;;;;5.68;0.47;;;;;;;1.85;46.12;102880.97;4989414;28;20161;-78
2022/02/11 14:12:12;;;;;;;5.88;0.30;;;;;;;2.18;45.94;102893.09;5013364;28;20126;-78
2022/02/11 14:14:37;;;;;;;6.35;0.85;;;;;;;2.69;45.62;102896.97;5012866;28;20120;-78
2022/02/11 14:17:04;;;;;;;15.63;0.98;;;;;;;2.49;46.71;102891.31;5048648;28;20041;-78
2022/02/11 14:19:30;;;;;;;9.05;0.60;;;;;;;3.10;45.57;102895.41;5023407;28;20037;-79
2022/02/11 14:21:58;;;;;;;6.72;0.55;;;;;;;3.28;45.59;102900.13;5013355;28;20473;-77
2022/02/11 14:24:25;;;;;;;8.02;0.52;;;;;;;3.48;45.70;102897.16;5036895;28;20065;-78
2022/02/11 14:26:52;;;;;;;7.65;0.85;;;;;;;3.55;44.90;102894.72;5051409;28;20052;-79
2022/02/11 14:29:18;;;;;;;6.43;0.90;;;;;;;3.71;45.24;102895.06;5014644;28;20072;-80
2022/02/11 14:31:45;;;;;;;5.75;1.05;;;;;;;3.84;45.35;102907.41;4999033;28;20347;-80
2022/02/11 14:34:12;;;;;;;12.25;1.85;;;;;;;3.97;44.82;102913.72;5014424;28;20103;-77
2022/02/11 14:36:39;;;;;;;9.90;0.60;;;;;;;4.41;43.26;102922.34;5003727;28;20039;-77
2022/02/11 14:39:05;;;;;;;19.02;1.55;;;;;;;3.60;44.61;102931.03;5017884;28;20034;-78
2022/02/11 14:41:46;;;;;;;18.20;3.05;;;;;;;3.62;44.34;102933.66;5048877;28;20033;-78
2022/02/11 14:44:26;;;;;;;13.15;1.23;;;;;;;3.26;45.81;102940.56;5014039;28;20049;-78
2022/02/11 14:46:54;;;;;;;9.80;1.35;;;;;;;3.22;45.97;102937.88;4994103;28;20102;-79
2022/02/11 14:49:20;;;;;;;15.32;1.13;;;;;;;2.87;46.35;102943.06;5030999;28;20698;-78
2022/02/11 14:51:49;;;;;;;5.07;0.57;;;;;;;3.09;46.34;102950.53;5034440;28;20033;-79
2022/02/11 14:54:16;;;;;;;17.17;1.55;;;;;;;3.09;45.63;102955.69;4997082;28;20037;-77
2022/02/11 14:56:42;;;;;;;3.80;0.98;;;;;;;3.42;44.62;102949.59;4995310;28;20037;-77
2022/02/11 14:59:08;;;;;;;5.60;1.20;;;;;;;3.50;43.85;102953.25;5014330;28;20045;-78
2022/02/11 15:01:41;;;;;;;12.88;0.70;;;;;;;3.19;44.00;102947.31;5015280;28;20040;-79
2022/02/11 15:04:07;;;;;;;9.82;0.68;;;;;;;3.18;43.44;102945.56;5001070;28;20052;-80
2022/02/11 15:06:34;;;;;;;4.93;0.30;;;;;;;3.08;43.40;102965.97;5015155;28;20014;-77
2022/02/11 15:09:01;;;;;;;5.28;0.80;;;;;;;2.73;42.83;102977.16;5036477;28;20099;-79
2022/02/11 15:11:57;;;;;;;9.23;1.73;;;;;;;2.26;42.75;102981.00;5053878;28;20053;-77
2022/02/11 15:14:42;;;;;;;7.22;1.52;;;;;;;2.45;42.25;102979.84;5019215;28;20530;-79
2022/02/11 15:18:14;;;;;;;3.28;0.60;;;;;;;2.38;42.43;102981.38;4994819;28;20163;-76
2022/02/11 15:22:31;;;;;;;11.25;1.05;;;;;;;2.75;42.25;102995.25;5005605;28;20249;-80
2022/02/11 15:29:30;;;;;;;4.20;0.95;;;;;;;3.44;41.42;103004.78;4984286;28;20253;-79
2022/02/11 15:33:19;;;;;;;4.55;0.52;;;;;;;3.50;40.80;103012.72;4951804;28;20732;-80
2022/02/11 15:44:28;;;;;;;10.32;1.00;;;;;;;3.25;40.82;103018.06;5002126;28;20079;-80
2022/02/11 15:47:01;;;;;;;2.25;0.35;;;;;;;3.04;41.58;103027.03;5007515;28;20151;-79
2022/02/11 15:49:27;;;;;;;6.35;1.08;;;;;;;2.71;42.09;103035.66;4979775;28;20045;-79
2022/02/11 15:51:52;;;;;;;6.60;0.40;;;;;;;2.80;41.97;103039.28;5011297;28;20118;-79
2022/02/11 15:54:18;;;;;;;6.45;0.32;;;;;;;2.71;42.49;103039.91;5015101;28;20241;-78
2022/02/11 15:56:44;;;;;;;5.95;0.38;;;;;;;2.90;42.34;103041.31;5032697;28;20554;-79
2022/02/11 15:59:10;;;;;;;4.78;0.65;;;;;;;2.78;42.71;103047.03;5032950;28;20076;-80